地図

経路データ

SID SEASON NUMBER BASIN SUBBASIN NAME ISO_TIME NATURE LAT LON WMO_WIND WMO_PRES WMO_AGENCY TRACK_TYPE DIST2LAND LANDFALL IFLAG USA_AGENCY USA_ATCF_ID USA_LAT USA_LON USA_RECORD USA_STATUS USA_WIND USA_PRES USA_SSHS USA_R34_NE USA_R34_SE USA_R34_SW USA_R34_NW USA_R50_NE USA_R50_SE USA_R50_SW USA_R50_NW USA_R64_NE USA_R64_SE USA_R64_SW USA_R64_NW USA_POCI USA_ROCI USA_RMW USA_EYE TOKYO_LAT TOKYO_LON TOKYO_GRADE TOKYO_WIND TOKYO_PRES TOKYO_R50_DIR TOKYO_R50_LONG TOKYO_R50_SHORT TOKYO_R30_DIR TOKYO_R30_LONG TOKYO_R30_SHORT TOKYO_LAND CMA_LAT CMA_LON CMA_CAT CMA_WIND CMA_PRES HKO_LAT HKO_LON HKO_CAT HKO_WIND HKO_PRES NEWDELHI_LAT NEWDELHI_LON NEWDELHI_GRADE NEWDELHI_WIND NEWDELHI_PRES NEWDELHI_CI NEWDELHI_DP NEWDELHI_POCI REUNION_LAT REUNION_LON REUNION_TYPE REUNION_WIND REUNION_PRES REUNION_TNUM REUNION_CI REUNION_RMW REUNION_R34_NE REUNION_R34_SE REUNION_R34_SW REUNION_R34_NW REUNION_R50_NE REUNION_R50_SE REUNION_R50_SW REUNION_R50_NW REUNION_R64_NE REUNION_R64_SE REUNION_R64_SW REUNION_R64_NW BOM_LAT BOM_LON BOM_TYPE BOM_WIND BOM_PRES BOM_TNUM BOM_CI BOM_RMW BOM_R34_NE BOM_R34_SE BOM_R34_SW BOM_R34_NW BOM_R50_NE BOM_R50_SE BOM_R50_SW BOM_R50_NW BOM_R64_NE BOM_R64_SE BOM_R64_SW BOM_R64_NW BOM_ROCI BOM_POCI BOM_EYE BOM_POS_METHOD BOM_PRES_METHOD NADI_LAT NADI_LON NADI_CAT NADI_WIND NADI_PRES WELLINGTON_LAT WELLINGTON_LON WELLINGTON_WIND WELLINGTON_PRES DS824_LAT DS824_LON DS824_STAGE DS824_WIND DS824_PRES TD9636_LAT TD9636_LON TD9636_STAGE TD9636_WIND TD9636_PRES TD9635_LAT TD9635_LON TD9635_WIND TD9635_PRES TD9635_ROCI NEUMANN_LAT NEUMANN_LON NEUMANN_CLASS NEUMANN_WIND NEUMANN_PRES MLC_LAT MLC_LON MLC_CLASS MLC_WIND MLC_PRES USA_GUST BOM_GUST BOM_GUST_PER REUNION_GUST REUNION_GUST_PER USA_SEAHGT USA_SEARAD_NE USA_SEARAD_SE USA_SEARAD_SW USA_SEARAD_NW STORM_SPEED STORM_DIR
1915240N18316 1915 29 NA NA NOT_NAMED 1915-08-27 12:00:00 TS 18.0000 -44.5000 40 hurdat_atl main 1682 1680 O_____________ hurdat_atl AL031915 18.0000 -44.5000 TS 40 0 16 309
1915240N18316 1915 29 NA NA NOT_NAMED 1915-08-27 15:00:00 TS 18.5004 -45.1468 main 1697 1692 P_____________ AL031915 18.5004 -45.1468 TS 40 0 16 309
1915240N18316 1915 29 NA NA NOT_NAMED 1915-08-27 18:00:00 TS 19.0000 -45.8000 40 hurdat_atl main 1711 1711 O_____________ hurdat_atl AL031915 19.0000 -45.8000 TS 40 0 16 309
1915240N18316 1915 29 NA NA NOT_NAMED 1915-08-27 21:00:00 TS 19.4998 -46.4578 main 1730 1730 P_____________ AL031915 19.4998 -46.4578 TS 42 0 16 309
1915240N18316 1915 29 NA NA NOT_NAMED 1915-08-28 00:00:00 TS 20.0000 -47.1000 45 hurdat_atl main 1755 1755 O_____________ hurdat_atl AL031915 20.0000 -47.1000 TS 45 0 15 310
1915240N18316 1915 29 NA NA NOT_NAMED 1915-08-28 03:00:00 TS 20.4997 -47.7080 main 1778 1778 P_____________ AL031915 20.4997 -47.7080 TS 45 0 15 312
1915240N18316 1915 29 NA NA NOT_NAMED 1915-08-28 06:00:00 TS 21.0000 -48.3000 45 hurdat_atl main 1780 1760 O_____________ hurdat_atl AL031915 21.0000 -48.3000 TS 45 0 15 311
1915240N18316 1915 29 NA NA NOT_NAMED 1915-08-28 09:00:00 TS 21.5000 -48.9227 main 1768 1726 P_____________ AL031915 21.5000 -48.9227 TS 47 0 15 312
1915240N18316 1915 29 NA NA NOT_NAMED 1915-08-28 12:00:00 TS 22.0000 -49.5000 50 hurdat_atl main 1726 1687 O_____________ hurdat_atl AL031915 22.0000 -49.5000 TS 50 0 14 316
1915240N18316 1915 29 NA NA NOT_NAMED 1915-08-28 15:00:00 TS 22.4997 -49.9805 main 1687 1658 P_____________ AL031915 22.4997 -49.9805 TS 50 0 13 320
1915240N18316 1915 29 NA NA NOT_NAMED 1915-08-28 18:00:00 TS 23.0000 -50.4000 50 hurdat_atl main 1661 1634 O_____________ hurdat_atl AL031915 23.0000 -50.4000 TS 50 0 13 323
1915240N18316 1915 29 NA NA NOT_NAMED 1915-08-28 21:00:00 TS 23.4998 -50.8079 main 1637 1613 P_____________ AL031915 23.4998 -50.8079 TS 52 0 12 324
1915240N18316 1915 29 NA NA NOT_NAMED 1915-08-29 00:00:00 TS 24.0000 -51.2000 55 hurdat_atl main 1617 1599 O_____________ hurdat_atl AL031915 24.0000 -51.2000 TS 55 0 12 325
1915240N18316 1915 29 NA NA NOT_NAMED 1915-08-29 03:00:00 TS 24.5073 -51.5928 main 1599 1580 P_____________ AL031915 24.5073 -51.5928 TS 55 0 12 324
1915240N18316 1915 29 NA NA NOT_NAMED 1915-08-29 06:00:00 TS 25.0000 -52.0000 55 hurdat_atl main 1585 1568 O_____________ hurdat_atl AL031915 25.0000 -52.0000 TS 55 0 12 321
1915240N18316 1915 29 NA NA NOT_NAMED 1915-08-29 09:00:00 TS 25.4650 -52.4502 main 1565 1551 P_____________ AL031915 25.4650 -52.4502 TS 57 0 12 318
1915240N18316 1915 29 NA NA NOT_NAMED 1915-08-29 12:00:00 TS 25.9000 -52.9000 60 hurdat_atl main 1551 1540 O_____________ hurdat_atl AL031915 25.9000 -52.9000 TS 60 0 11 318
1915240N18316 1915 29 NA NA NOT_NAMED 1915-08-29 15:00:00 TS 26.3148 -53.3004 main 1540 1532 P_____________ AL031915 26.3148 -53.3004 TS 60 0 11 318
1915240N18316 1915 29 NA NA NOT_NAMED 1915-08-29 18:00:00 TS 26.7000 -53.7000 60 hurdat_atl main 1532 1519 O_____________ hurdat_atl AL031915 26.7000 -53.7000 TS 60 0 11 315
1915240N18316 1915 29 NA NA NOT_NAMED 1915-08-29 21:00:00 TS 27.0574 -54.1428 main 1526 1508 P_____________ AL031915 27.0574 -54.1428 TS 62 0 11 311
1915240N18316 1915 29 NA NA NOT_NAMED 1915-08-30 00:00:00 TS 27.4000 -54.6000 65 hurdat_atl main 1508 1500 O_____________ hurdat_atl AL031915 27.4000 -54.6000 HU 65 1 11 311
1915240N18316 1915 29 NA NA NOT_NAMED 1915-08-30 03:00:00 TS 27.7574 -55.0576 main 1500 1493 P_____________ AL031915 27.7574 -55.0576 HU 65 1 11 311
1915240N18316 1915 29 NA NA NOT_NAMED 1915-08-30 06:00:00 TS 28.1000 -55.5000 65 hurdat_atl main 1494 1488 O_____________ hurdat_atl AL031915 28.1000 -55.5000 HU 65 1 10 311
1915240N18316 1915 29 NA NA NOT_NAMED 1915-08-30 09:00:00 TS 28.4073 -55.9079 main 1491 1484 P_____________ AL031915 28.4073 -55.9079 HU 67 1 9 310
1915240N18316 1915 29 NA NA NOT_NAMED 1915-08-30 12:00:00 TS 28.7000 -56.3000 70 hurdat_atl main 1489 1483 O_____________ hurdat_atl AL031915 28.7000 -56.3000 HU 70 1 9 310
1915240N18316 1915 29 NA NA NOT_NAMED 1915-08-30 15:00:00 TS 28.9999 -56.7077 main 1489 1483 P_____________ AL031915 28.9999 -56.7077 HU 70 1 9 311
1915240N18316 1915 29 NA NA NOT_NAMED 1915-08-30 18:00:00 TS 29.3000 -57.1000 70 hurdat_atl main 1492 1486 O_____________ hurdat_atl AL031915 29.3000 -57.1000 HU 70 1 9 313
1915240N18316 1915 29 NA NA NOT_NAMED 1915-08-30 21:00:00 TS 29.5998 -57.4578 main 1496 1496 P_____________ AL031915 29.5998 -57.4578 HU 72 1 9 315
1915240N18316 1915 29 NA NA NOT_NAMED 1915-08-31 00:00:00 TS 29.9000 -57.8000 75 hurdat_atl main 1507 1506 O_____________ hurdat_atl AL031915 29.9000 -57.8000 HU 75 1 9 315
1915240N18316 1915 29 NA NA NOT_NAMED 1915-08-31 03:00:00 TS 30.2075 -58.1650 main 1515 1515 P_____________ AL031915 30.2075 -58.1650 HU 75 1 9 315
1915240N18316 1915 29 NA NA NOT_NAMED 1915-08-31 06:00:00 TS 30.5000 -58.5000 75 hurdat_atl main 1529 1525 O_____________ hurdat_atl AL031915 30.5000 -58.5000 HU 75 1 8 317
1915240N18316 1915 29 NA NA NOT_NAMED 1915-08-31 09:00:00 TS 30.7724 -58.7727 main 1525 1498 P_____________ AL031915 30.7724 -58.7727 HU 77 1 7 319
1915240N18316 1915 29 NA NA NOT_NAMED 1915-08-31 12:00:00 TS 31.0000 -59.0000 80 hurdat_atl main 1498 1470 O_____________ hurdat_atl AL031915 31.0000 -59.0000 HU 80 1 6 318
1915240N18316 1915 29 NA NA NOT_NAMED 1915-08-31 15:00:00 TS 31.1799 -59.2076 main 1470 1453 P_____________ AL031915 31.1799 -59.2076 HU 80 1 5 311
1915240N18316 1915 29 NA NA NOT_NAMED 1915-08-31 18:00:00 TS 31.3000 -59.4000 80 hurdat_atl main 1453 1437 O_____________ hurdat_atl AL031915 31.3000 -59.4000 HU 80 1 4 299
1915240N18316 1915 29 NA NA NOT_NAMED 1915-08-31 21:00:00 TS 31.3650 -59.6001 main 1437 1431 P_____________ AL031915 31.3650 -59.6001 HU 82 1 4 286
1915240N18316 1915 29 NA NA NOT_NAMED 1915-09-01 00:00:00 TS 31.4000 -59.8000 85 hurdat_atl main 1431 1414 O_____________ hurdat_atl AL031915 31.4000 -59.8000 HU 85 2 4 285
1915240N18316 1915 29 NA NA NOT_NAMED 1915-09-01 03:00:00 TS 31.4575 -60.0000 main 1414 1409 P_____________ AL031915 31.4575 -60.0000 HU 85 2 4 286
1915240N18316 1915 29 NA NA NOT_NAMED 1915-09-01 06:00:00 TS 31.5000 -60.2000 85 hurdat_atl main 1409 1403 O_____________ hurdat_atl AL031915 31.5000 -60.2000 HU 85 2 3 278
1915240N18316 1915 29 NA NA NOT_NAMED 1915-09-01 09:00:00 TS 31.5075 -60.4000 main 1403 1398 P_____________ AL031915 31.5075 -60.4000 HU 87 2 3 270
1915240N18316 1915 29 NA NA NOT_NAMED 1915-09-01 12:00:00 TS 31.5000 -60.6000 90 hurdat_atl main 1398 1393 O_____________ hurdat_atl AL031915 31.5000 -60.6000 HU 90 2 3 267
1915240N18316 1915 29 NA NA NOT_NAMED 1915-09-01 15:00:00 TS 31.4924 -60.7926 main 1393 1388 P_____________ AL031915 31.4924 -60.7926 HU 92 2 3 270
1915240N18316 1915 29 NA NA NOT_NAMED 1915-09-01 18:00:00 TS 31.5000 -61.0000 95 hurdat_atl main 1388 1378 O_____________ hurdat_atl AL031915 31.5000 -61.0000 HU 95 2 4 276
1915240N18316 1915 29 NA NA NOT_NAMED 1915-09-01 21:00:00 TS 31.5350 -61.2425 main 1378 1354 P_____________ AL031915 31.5350 -61.2425 HU 97 3 4 283
1915240N18316 1915 29 NA NA NOT_NAMED 1915-09-02 00:00:00 TS 31.6000 -61.5000 100 hurdat_atl main 1354 1334 O_____________ hurdat_atl AL031915 31.6000 -61.5000 HU 100 3 5 290
1915240N18316 1915 29 NA NA NOT_NAMED 1915-09-02 03:00:00 TS 31.6924 -61.7500 main 1334 1310 P_____________ AL031915 31.6924 -61.7500 HU 102 3 5 295
1915240N18316 1915 29 NA NA NOT_NAMED 1915-09-02 06:00:00 TS 31.8000 -62.0000 105 hurdat_atl main 1310 1291 O_____________ hurdat_atl AL031915 31.8000 -62.0000 HU 105 3 5 296
1915240N18316 1915 29 NA NA NOT_NAMED 1915-09-02 09:00:00 TS 31.8924 -62.2352 main 1291 1267 P_____________ AL031915 31.8924 -62.2352 HU 105 3 5 295
1915240N18316 1915 29 NA NA NOT_NAMED 1915-09-02 12:00:00 TS 32.0000 -62.5000 105 hurdat_atl main 1267 1238 O_____________ hurdat_atl AL031915 32.0000 -62.5000 HU 105 3 6 298
1915240N18316 1915 29 NA NA NOT_NAMED 1915-09-02 15:00:00 TS 32.1498 -62.8125 main 1238 1195 P_____________ AL031915 32.1498 -62.8125 HU 105 3 7 297
1915240N18316 1915 29 NA NA NOT_NAMED 1915-09-02 18:00:00 TS 32.3000 -63.2000 105 hurdat_atl main 1195 1147 O_____________ hurdat_atl AL031915 32.3000 -63.2000 HU 105 3 8 289
1915240N18316 1915 29 NA NA NOT_NAMED 1915-09-02 21:00:00 TS 32.4078 -63.7001 main 1147 1100 P_____________ AL031915 32.4078 -63.7001 HU 105 3 9 283
1915240N18316 1915 29 NA NA NOT_NAMED 1915-09-03 00:00:00 TS 32.5000 -64.2000 105 hurdat_atl main 1100 1061 O_____________ hurdat_atl AL031915 32.5000 -64.2000 HU 105 3 8 285
1915240N18316 1915 29 NA NA NOT_NAMED 1915-09-03 03:00:00 TS 32.6148 -64.5949 main 1061 1031 P_____________ AL031915 32.6148 -64.5949 HU 105 3 6 289
1915240N18316 1915 29 NA NA NOT_NAMED 1915-09-03 06:00:00 TS 32.7000 -64.9000 105 hurdat_atl main 1031 1013 O_____________ hurdat_atl AL031915 32.7000 -64.9000 HU 105 3 5 284
1915240N18316 1915 29 NA NA NOT_NAMED 1915-09-03 09:00:00 TS 32.7299 -65.1451 main 1013 996 P_____________ AL031915 32.7299 -65.1451 HU 105 3 3 270
1915240N18316 1915 29 NA NA NOT_NAMED 1915-09-03 12:00:00 TS 32.7000 -65.3000 105 hurdat_atl main 996 988 O_____________ hurdat_atl AL031915 32.7000 -65.3000 HU 105 3 2 242
1915240N18316 1915 29 NA NA NOT_NAMED 1915-09-03 15:00:00 TS 32.6224 -65.3876 main 992 992 P_____________ AL031915 32.6224 -65.3876 HU 105 3 2 205
1915240N18316 1915 29 NA NA NOT_NAMED 1915-09-03 18:00:00 TS 32.5000 -65.4000 105 hurdat_atl main 997 997 O_____________ hurdat_atl AL031915 32.5000 -65.4000 HU 105 3 3 0
1915240N18316 1915 29 NA NA NOT_NAMED 1915-09-03 21:00:00 TS 32.3650 -65.3650 main 1001 1001 P_____________ AL031915 32.3650 -65.3650 HU 105 3 3 164
1915240N18316 1915 29 NA NA NOT_NAMED 1915-09-04 00:00:00 TS 32.2000 -65.3000 105 hurdat_atl main 1019 1019 O_____________ hurdat_atl AL031915 32.2000 -65.3000 HU 105 3 4 168
1915240N18316 1915 29 NA NA NOT_NAMED 1915-09-04 03:00:00 TS 31.9999 -65.2726 main 1029 1029 P_____________ AL031915 31.9999 -65.2726 HU 105 3 4 168
1915240N18316 1915 29 NA NA NOT_NAMED 1915-09-04 06:00:00 TS 31.8000 -65.2000 105 hurdat_atl main 1048 1048 O_____________ hurdat_atl AL031915 31.8000 -65.2000 HU 105 3 4 149
1915240N18316 1915 29 NA NA NOT_NAMED 1915-09-04 09:00:00 TS 31.6351 -65.0149 main 1075 1075 P_____________ AL031915 31.6351 -65.0149 HU 105 3 5 131
1915240N18316 1915 29 NA NA NOT_NAMED 1915-09-04 12:00:00 TS 31.5000 -64.8000 105 hurdat_atl main 1097 1097 O_____________ hurdat_atl AL031915 31.5000 -64.8000 HU 105 3 4 128
1915240N18316 1915 29 NA NA NOT_NAMED 1915-09-04 15:00:00 TS 31.3850 -64.6351 main 1119 1119 P_____________ AL031915 31.3850 -64.6351 HU 105 3 3 128
1915240N18316 1915 29 NA NA NOT_NAMED 1915-09-04 18:00:00 TS 31.3000 -64.5000 105 hurdat_atl main 1133 1133 O_____________ hurdat_atl AL031915 31.3000 -64.5000 HU 105 3 2 122
1915240N18316 1915 29 NA NA NOT_NAMED 1915-09-04 21:00:00 TS 31.2575 -64.3926 main 1141 1141 P_____________ AL031915 31.2575 -64.3926 HU 105 3 2 120
1915240N18316 1915 29 NA NA NOT_NAMED 1915-09-05 00:00:00 TS 31.2000 -64.3000 105 hurdat_atl main 1155 1155 O_____________ hurdat_atl AL031915 31.2000 -64.3000 HU 105 3 3 139
1915240N18316 1915 29 NA NA NOT_NAMED 1915-09-05 03:00:00 TS 31.0575 -64.1924 main 1169 1169 P_____________ AL031915 31.0575 -64.1924 HU 105 3 3 150
1915240N18316 1915 29 NA NA NOT_NAMED 1915-09-05 06:00:00 TS 30.9000 -64.1000 105 hurdat_atl main 1188 1188 O_____________ hurdat_atl AL031915 30.9000 -64.1000 HU 105 3 3 153
1915240N18316 1915 29 NA NA NOT_NAMED 1915-09-05 09:00:00 TS 30.7925 -64.0350 main 1202 1202 P_____________ AL031915 30.7925 -64.0350 HU 105 3 2 155
1915240N18316 1915 29 NA NA NOT_NAMED 1915-09-05 12:00:00 TS 30.7000 -64.0000 105 hurdat_atl main 1208 1208 O_____________ hurdat_atl AL031915 30.7000 -64.0000 HU 105 3 2 167
1915240N18316 1915 29 NA NA NOT_NAMED 1915-09-05 15:00:00 TS 30.5925 -63.9925 main 1213 1213 P_____________ AL031915 30.5925 -63.9925 HU 105 3 2 172
1915240N18316 1915 29 NA NA NOT_NAMED 1915-09-05 18:00:00 TS 30.5000 -64.0000 105 hurdat_atl main 1219 1219 O_____________ hurdat_atl AL031915 30.5000 -64.0000 HU 105 3 2 0
1915240N18316 1915 29 NA NA NOT_NAMED 1915-09-05 21:00:00 TS 30.4425 -64.0000 main 1225 1225 P_____________ AL031915 30.4425 -64.0000 HU 102 3 1 0
1915240N18316 1915 29 NA NA NOT_NAMED 1915-09-06 00:00:00 TS 30.4000 -64.0000 100 hurdat_atl main 1225 1225 O_____________ hurdat_atl AL031915 30.4000 -64.0000 HU 100 3 1 0
1915240N18316 1915 29 NA NA NOT_NAMED 1915-09-06 03:00:00 TS 30.3500 -64.0000 main 1225 1231 P_____________ AL031915 30.3500 -64.0000 HU 100 3 1 0
1915240N18316 1915 29 NA NA NOT_NAMED 1915-09-06 06:00:00 TS 30.3000 -64.0000 100 hurdat_atl main 1231 1231 O_____________ hurdat_atl AL031915 30.3000 -64.0000 HU 100 3 1 0
1915240N18316 1915 29 NA NA NOT_NAMED 1915-09-06 09:00:00 TS 30.2425 -63.9775 main 1237 1237 P_____________ AL031915 30.2425 -63.9775 HU 97 3 1 0
1915240N18316 1915 29 NA NA NOT_NAMED 1915-09-06 12:00:00 TS 30.2000 -64.0000 95 hurdat_atl main 1237 1229 O_____________ hurdat_atl AL031915 30.2000 -64.0000 HU 95 2 1 246
1915240N18316 1915 29 NA NA NOT_NAMED 1915-09-06 15:00:00 TS 30.1924 -64.1050 main 1229 1213 P_____________ AL031915 30.1924 -64.1050 HU 95 2 3 270
1915240N18316 1915 29 NA NA NOT_NAMED 1915-09-06 18:00:00 TS 30.2000 -64.3000 95 hurdat_atl main 1213 1198 O_____________ hurdat_atl AL031915 30.2000 -64.3000 HU 95 2 4 270
1915240N18316 1915 29 NA NA NOT_NAMED 1915-09-06 21:00:00 TS 30.1923 -64.5476 main 1198 1166 P_____________ AL031915 30.1923 -64.5476 HU 92 2 5 270
1915240N18316 1915 29 NA NA NOT_NAMED 1915-09-07 00:00:00 TS 30.2000 -64.9000 90 hurdat_atl main 1166 1127 O_____________ hurdat_atl AL031915 30.2000 -64.9000 HU 90 2 7 273
1915240N18316 1915 29 NA NA NOT_NAMED 1915-09-07 03:00:00 TS 30.2354 -65.4000 main 1127 1082 P_____________ AL031915 30.2354 -65.4000 HU 90 2 9 277
1915240N18316 1915 29 NA NA NOT_NAMED 1915-09-07 06:00:00 TS 30.3000 -65.9000 90 hurdat_atl main 1082 1052 O_____________ hurdat_atl AL031915 30.3000 -65.9000 HU 90 2 8 280
1915240N18316 1915 29 NA NA NOT_NAMED 1915-09-07 09:00:00 TS 30.3698 -66.2601 main 1045 1023 P_____________ AL031915 30.3698 -66.2601 HU 90 2 6 291
1915240N18316 1915 29 NA NA NOT_NAMED 1915-09-07 12:00:00 TS 30.5000 -66.5000 90 hurdat_atl main 1023 1002 O_____________ hurdat_atl AL031915 30.5000 -66.5000 HU 90 2 5 317
1915240N18316 1915 29 NA NA NOT_NAMED 1915-09-07 15:00:00 TS 30.7274 -66.6524 main 994 974 P_____________ AL031915 30.7274 -66.6524 HU 90 2 5 341
1915240N18316 1915 29 NA NA NOT_NAMED 1915-09-07 18:00:00 TS 31.0000 -66.7000 90 hurdat_atl main 974 961 O_____________ hurdat_atl AL031915 31.0000 -66.7000 HU 90 2 5 0
1915240N18316 1915 29 NA NA NOT_NAMED 1915-09-07 21:00:00 TS 31.2500 -66.6726 main 955 951 P_____________ AL031915 31.2500 -66.6726 HU 90 2 5 10
1915240N18316 1915 29 NA NA NOT_NAMED 1915-09-08 00:00:00 TS 31.5000 -66.6000 90 hurdat_atl main 951 939 O_____________ hurdat_atl AL031915 31.5000 -66.6000 HU 90 2 5 12
1915240N18316 1915 29 NA NA NOT_NAMED 1915-09-08 03:00:00 TS 31.7500 -66.5500 main 941 930 P_____________ AL031915 31.7500 -66.5500 HU 87 2 5 10
1915240N18316 1915 29 NA NA NOT_NAMED 1915-09-08 06:00:00 TS 32.0000 -66.5000 85 hurdat_atl main 930 919 O_____________ hurdat_atl AL031915 32.0000 -66.5000 HU 85 2 5 10
1915240N18316 1915 29 NA NA NOT_NAMED 1915-09-08 09:00:00 TS 32.2500 -66.4500 main 922 912 P_____________ AL031915 32.2500 -66.4500 HU 85 2 5 10
1915240N18316 1915 29 NA NA NOT_NAMED 1915-09-08 12:00:00 TS 32.5000 -66.4000 85 hurdat_atl main 912 902 O_____________ hurdat_atl AL031915 32.5000 -66.4000 HU 85 2 5 10
1915240N18316 1915 29 NA NA NOT_NAMED 1915-09-08 15:00:00 TS 32.7425 -66.3500 main 911 897 P_____________ AL031915 32.7425 -66.3500 HU 85 2 5 10
1915240N18316 1915 29 NA NA NOT_NAMED 1915-09-08 18:00:00 TS 33.0000 -66.3000 85 hurdat_atl main 897 885 O_____________ hurdat_atl AL031915 33.0000 -66.3000 HU 85 2 6 8
1915240N18316 1915 29 NA NA NOT_NAMED 1915-09-08 21:00:00 TS 33.2925 -66.2574 main 885 882 P_____________ AL031915 33.2925 -66.2574 HU 85 2 6 8
1915240N18316 1915 29 NA NA NOT_NAMED 1915-09-09 00:00:00 TS 33.6000 -66.2000 85 hurdat_atl main 882 875 O_____________ hurdat_atl AL031915 33.6000 -66.2000 HU 85 2 6 11
1915240N18316 1915 29 NA NA NOT_NAMED 1915-09-09 03:00:00 TS 33.9000 -66.1149 main 881 875 P_____________ AL031915 33.9000 -66.1149 HU 82 1 6 16
1915240N18316 1915 29 NA NA NOT_NAMED 1915-09-09 06:00:00 TS 34.2000 -66.0000 80 hurdat_atl main 881 877 O_____________ hurdat_atl AL031915 34.2000 -66.0000 HU 80 1 6 18
1915240N18316 1915 29 NA NA NOT_NAMED 1915-09-09 09:00:00 TS 34.4924 -65.8797 main 877 854 P_____________ AL031915 34.4924 -65.8797 HU 80 1 7 22
1915240N18316 1915 29 NA NA NOT_NAMED 1915-09-09 12:00:00 TS 34.8000 -65.7000 80 hurdat_atl main 854 832 O_____________ hurdat_atl AL031915 34.8000 -65.7000 HU 80 1 7 29
1915240N18316 1915 29 NA NA NOT_NAMED 1915-09-09 15:00:00 TS 35.1349 -65.4447 main 836 810 P_____________ AL031915 35.1349 -65.4447 HU 77 1 9 35
1915240N18316 1915 29 NA NA NOT_NAMED 1915-09-09 18:00:00 TS 35.5000 -65.1000 75 hurdat_atl main 810 791 O_____________ hurdat_atl AL031915 35.5000 -65.1000 HU 75 1 10 39
1915240N18316 1915 29 NA NA NOT_NAMED 1915-09-09 21:00:00 TS 35.8924 -64.6872 main 791 775 P_____________ AL031915 35.8924 -64.6872 HU 72 1 11 42
1915240N18316 1915 29 NA NA NOT_NAMED 1915-09-10 00:00:00 TS 36.3000 -64.2000 70 hurdat_atl main 781 768 O_____________ hurdat_atl AL031915 36.3000 -64.2000 HU 70 1 11 46
1915240N18316 1915 29 NA NA NOT_NAMED 1915-09-10 03:00:00 TS 36.6923 -63.6719 main 768 733 P_____________ AL031915 36.6923 -63.6719 HU 67 1 12 48
1915240N18316 1915 29 NA NA NOT_NAMED 1915-09-10 06:00:00 TS 37.1000 -63.1000 65 hurdat_atl main 736 702 O_____________ hurdat_atl AL031915 37.1000 -63.1000 HU 65 1 12 45
1915240N18316 1915 29 NA NA NOT_NAMED 1915-09-10 09:00:00 TS 37.5319 -62.6317 main 705 671 P_____________ AL031915 37.5320 -62.6317 HU 62 0 13 47
1915240N18316 1915 29 NA NA NOT_NAMED 1915-09-10 12:00:00 TS 38.0000 -61.9000 60 hurdat_atl main 675 668 O_____________ hurdat_atl AL031915 38.0000 -61.9000 TS 60 0 19 59
1915240N18316 1915 29 NA NA NOT_NAMED 1915-09-10 15:00:00 TS 38.4942 -60.5854 main 680 680 P_____________ AL031915 38.4942 -60.5854 TS 57 0 25 66
1915240N18316 1915 29 NA NA NOT_NAMED 1915-09-10 18:00:00 ET 39.0000 -59.0000 55 hurdat_atl main 706 695 O_____________ hurdat_atl AL031915 39.0000 -59.0000 EX 55 -4 26 67
1915240N18316 1915 29 NA NA NOT_NAMED 1915-09-10 21:00:00 ET 39.5041 -57.4707 main 698 695 P_____________ AL031915 39.5041 -57.4707 EX 55 -4 25 67
1915240N18316 1915 29 NA NA NOT_NAMED 1915-09-11 00:00:00 ET 40.0000 -56.0000 55 hurdat_atl main 712 O_____________ hurdat_atl AL031915 40.0000 -56.0000 EX 55 -4 25 66

IBTrACS Databaseについて

本データベースは、米国NOAAが公開する1842年以降の世界の熱帯低気圧のベストトラックデータアーカイブInternational Best Track Archive for Climate Stewardship (IBTrACS)を、ウェブで閲覧しやすい形式に変換したものです。

最終更新日:2021-11-26